sensor_id;sensor_type;location;lat;lon;timestamp;P1;durP1;ratioP1;P2;durP2;ratioP2
36315;SDS011;22343;50.820;2.666;2023-02-15T00:01:04;76.90;;;46.23;;
36315;SDS011;22343;50.820;2.666;2023-02-15T00:03:53;72.63;;;46.13;;
36315;SDS011;22343;50.820;2.666;2023-02-15T00:06:38;80.53;;;47.77;;
36315;SDS011;22343;50.820;2.666;2023-02-15T00:09:23;74.70;;;45.23;;
36315;SDS011;22343;50.820;2.666;2023-02-15T00:12:09;72.90;;;45.53;;
36315;SDS011;22343;50.820;2.666;2023-02-15T00:14:54;73.27;;;43.83;;
36315;SDS011;22343;50.820;2.666;2023-02-15T00:17:39;73.50;;;43.73;;
36315;SDS011;22343;50.820;2.666;2023-02-15T00:20:24;76.20;;;45.13;;
36315;SDS011;22343;50.820;2.666;2023-02-15T00:23:10;75.30;;;43.77;;
36315;SDS011;22343;50.820;2.666;2023-02-15T00:26:08;75.80;;;44.80;;
36315;SDS011;22343;50.820;2.666;2023-02-15T00:28:55;73.90;;;46.03;;
36315;SDS011;22343;50.820;2.666;2023-02-15T00:31:44;86.33;;;50.40;;
36315;SDS011;22343;50.820;2.666;2023-02-15T00:34:28;103.37;;;55.50;;
36315;SDS011;22343;50.820;2.666;2023-02-15T00:37:13;89.10;;;52.23;;
36315;SDS011;22343;50.820;2.666;2023-02-15T00:39:57;96.43;;;53.87;;
36315;SDS011;22343;50.820;2.666;2023-02-15T00:42:42;90.73;;;53.03;;
36315;SDS011;22343;50.820;2.666;2023-02-15T00:45:28;80.70;;;49.30;;
36315;SDS011;22343;50.820;2.666;2023-02-15T00:48:13;78.43;;;47.77;;
36315;SDS011;22343;50.820;2.666;2023-02-15T00:50:59;81.17;;;46.97;;
36315;SDS011;22343;50.820;2.666;2023-02-15T00:53:45;76.53;;;45.93;;
36315;SDS011;22343;50.820;2.666;2023-02-15T00:56:31;74.20;;;44.90;;
36315;SDS011;22343;50.820;2.666;2023-02-15T00:59:17;72.40;;;45.57;;
36315;SDS011;22343;50.820;2.666;2023-02-15T01:02:02;77.63;;;47.77;;
36315;SDS011;22343;50.820;2.666;2023-02-15T01:04:48;74.30;;;45.90;;
36315;SDS011;22343;50.820;2.666;2023-02-15T01:07:33;74.23;;;46.77;;
36315;SDS011;22343;50.820;2.666;2023-02-15T01:10:19;69.27;;;44.30;;
36315;SDS011;22343;50.820;2.666;2023-02-15T01:13:04;76.03;;;46.37;;
36315;SDS011;22343;50.820;2.666;2023-02-15T01:15:53;73.00;;;45.00;;
36315;SDS011;22343;50.820;2.666;2023-02-15T01:18:39;74.30;;;44.37;;
36315;SDS011;22343;50.820;2.666;2023-02-15T01:21:25;75.87;;;45.37;;
36315;SDS011;22343;50.820;2.666;2023-02-15T01:24:14;76.50;;;46.10;;
36315;SDS011;22343;50.820;2.666;2023-02-15T01:27:00;80.93;;;49.13;;
36315;SDS011;22343;50.820;2.666;2023-02-15T01:29:45;91.00;;;52.37;;
36315;SDS011;22343;50.820;2.666;2023-02-15T01:32:32;100.30;;;56.67;;
36315;SDS011;22343;50.820;2.666;2023-02-15T01:35:18;79.97;;;49.70;;
36315;SDS011;22343;50.820;2.666;2023-02-15T01:38:02;73.40;;;45.23;;
36315;SDS011;22343;50.820;2.666;2023-02-15T01:40:50;106.40;;;61.23;;
36315;SDS011;22343;50.820;2.666;2023-02-15T01:43:41;74.53;;;47.73;;
36315;SDS011;22343;50.820;2.666;2023-02-15T01:49:32;78.00;;;47.60;;
36315;SDS011;22343;50.820;2.666;2023-02-15T01:52:19;81.33;;;49.03;;
36315;SDS011;22343;50.820;2.666;2023-02-15T01:55:04;75.53;;;47.13;;
36315;SDS011;22343;50.820;2.666;2023-02-15T01:57:51;66.83;;;41.87;;
36315;SDS011;22343;50.820;2.666;2023-02-15T02:00:36;63.60;;;41.23;;
36315;SDS011;22343;50.820;2.666;2023-02-15T02:03:24;65.57;;;42.03;;
36315;SDS011;22343;50.820;2.666;2023-02-15T02:06:21;65.30;;;41.77;;
36315;SDS011;22343;50.820;2.666;2023-02-15T02:09:07;65.83;;;41.77;;
36315;SDS011;22343;50.820;2.666;2023-02-15T02:11:52;63.20;;;40.00;;
36315;SDS011;22343;50.820;2.666;2023-02-15T02:14:39;61.30;;;39.13;;
36315;SDS011;22343;50.820;2.666;2023-02-15T02:46:33;72.57;;;44.37;;
36315;SDS011;22343;50.820;2.666;2023-02-15T02:49:30;78.37;;;46.47;;
36315;SDS011;22343;50.820;2.666;2023-02-15T02:52:34;73.40;;;45.47;;
36315;SDS011;22343;50.820;2.666;2023-02-15T03:01:35;78.00;;;47.70;;
36315;SDS011;22343;50.820;2.666;2023-02-15T03:04:27;81.23;;;47.47;;
36315;SDS011;22343;50.820;2.666;2023-02-15T03:07:18;80.60;;;47.03;;
36315;SDS011;22343;50.820;2.666;2023-02-15T03:10:07;85.10;;;49.07;;
36315;SDS011;22343;50.820;2.666;2023-02-15T03:12:53;86.00;;;50.40;;
36315;SDS011;22343;50.820;2.666;2023-02-15T03:15:39;84.53;;;49.30;;
36315;SDS011;22343;50.820;2.666;2023-02-15T03:18:45;87.03;;;51.63;;
36315;SDS011;22343;50.820;2.666;2023-02-15T03:25:25;89.93;;;54.53;;
36315;SDS011;22343;50.820;2.666;2023-02-15T03:28:15;87.40;;;53.10;;
36315;SDS011;22343;50.820;2.666;2023-02-15T03:31:05;84.57;;;50.27;;
36315;SDS011;22343;50.820;2.666;2023-02-15T03:33:56;87.17;;;52.80;;
36315;SDS011;22343;50.820;2.666;2023-02-15T03:42:32;79.47;;;48.00;;
36315;SDS011;22343;50.820;2.666;2023-02-15T03:45:22;76.37;;;45.53;;
36315;SDS011;22343;50.820;2.666;2023-02-15T03:48:10;70.83;;;43.57;;
36315;SDS011;22343;50.820;2.666;2023-02-15T03:50:56;70.33;;;42.80;;
36315;SDS011;22343;50.820;2.666;2023-02-15T03:54:15;72.20;;;43.53;;
36315;SDS011;22343;50.820;2.666;2023-02-15T03:57:24;70.83;;;43.07;;
36315;SDS011;22343;50.820;2.666;2023-02-15T04:00:29;68.93;;;42.27;;
36315;SDS011;22343;50.820;2.666;2023-02-15T04:03:39;69.50;;;43.47;;
36315;SDS011;22343;50.820;2.666;2023-02-15T04:06:26;64.07;;;39.77;;
36315;SDS011;22343;50.820;2.666;2023-02-15T04:09:12;63.03;;;40.50;;
36315;SDS011;22343;50.820;2.666;2023-02-15T04:12:17;61.63;;;39.30;;
36315;SDS011;22343;50.820;2.666;2023-02-15T04:15:03;66.93;;;41.00;;
36315;SDS011;22343;50.820;2.666;2023-02-15T04:18:12;64.43;;;40.17;;
36315;SDS011;22343;50.820;2.666;2023-02-15T04:20:57;63.53;;;40.07;;
36315;SDS011;22343;50.820;2.666;2023-02-15T04:24:01;316.73;;;44.13;;
36315;SDS011;22343;50.820;2.666;2023-02-15T04:27:06;56.37;;;35.73;;
36315;SDS011;22343;50.820;2.666;2023-02-15T04:29:52;60.90;;;38.63;;
36315;SDS011;22343;50.820;2.666;2023-02-15T04:32:37;72.70;;;43.03;;
36315;SDS011;22343;50.820;2.666;2023-02-15T04:35:23;77.73;;;47.07;;
36315;SDS011;22343;50.820;2.666;2023-02-15T04:38:09;64.43;;;40.90;;
36315;SDS011;22343;50.820;2.666;2023-02-15T04:40:55;56.97;;;36.03;;
36315;SDS011;22343;50.820;2.666;2023-02-15T04:43:41;65.13;;;39.80;;
36315;SDS011;22343;50.820;2.666;2023-02-15T04:46:27;60.13;;;38.17;;
36315;SDS011;22343;50.820;2.666;2023-02-15T04:49:14;66.60;;;39.83;;
36315;SDS011;22343;50.820;2.666;2023-02-15T04:51:59;71.07;;;44.40;;
36315;SDS011;22343;50.820;2.666;2023-02-15T04:54:45;71.37;;;43.57;;
36315;SDS011;22343;50.820;2.666;2023-02-15T04:57:31;65.03;;;39.13;;
36315;SDS011;22343;50.820;2.666;2023-02-15T05:00:15;66.20;;;41.17;;
36315;SDS011;22343;50.820;2.666;2023-02-15T05:03:02;71.37;;;42.37;;
36315;SDS011;22343;50.820;2.666;2023-02-15T05:05:48;84.93;;;46.83;;
36315;SDS011;22343;50.820;2.666;2023-02-15T05:08:34;77.27;;;46.10;;
36315;SDS011;22343;50.820;2.666;2023-02-15T05:11:19;82.13;;;46.27;;
36315;SDS011;22343;50.820;2.666;2023-02-15T05:14:04;86.43;;;47.03;;
36315;SDS011;22343;50.820;2.666;2023-02-15T05:16:50;87.07;;;48.87;;
36315;SDS011;22343;50.820;2.666;2023-02-15T05:19:34;91.60;;;49.43;;
36315;SDS011;22343;50.820;2.666;2023-02-15T05:22:18;86.97;;;48.93;;
36315;SDS011;22343;50.820;2.666;2023-02-15T05:25:04;82.47;;;48.10;;
36315;SDS011;22343;50.820;2.666;2023-02-15T05:28:11;76.70;;;45.50;;
36315;SDS011;22343;50.820;2.666;2023-02-15T05:33:59;84.60;;;48.10;;
36315;SDS011;22343;50.820;2.666;2023-02-15T05:36:45;79.00;;;45.37;;
36315;SDS011;22343;50.820;2.666;2023-02-15T05:39:29;74.40;;;44.93;;
36315;SDS011;22343;50.820;2.666;2023-02-15T05:42:15;78.73;;;45.80;;
36315;SDS011;22343;50.820;2.666;2023-02-15T05:45:01;78.57;;;45.33;;
36315;SDS011;22343;50.820;2.666;2023-02-15T05:47:48;77.30;;;45.73;;
36315;SDS011;22343;50.820;2.666;2023-02-15T05:50:34;78.80;;;44.73;;
36315;SDS011;22343;50.820;2.666;2023-02-15T05:53:22;78.20;;;44.80;;
36315;SDS011;22343;50.820;2.666;2023-02-15T05:56:08;80.93;;;46.10;;
36315;SDS011;22343;50.820;2.666;2023-02-15T05:58:53;78.87;;;44.87;;
36315;SDS011;22343;50.820;2.666;2023-02-15T06:01:40;82.27;;;46.60;;
36315;SDS011;22343;50.820;2.666;2023-02-15T06:04:24;78.50;;;44.73;;
36315;SDS011;22343;50.820;2.666;2023-02-15T06:07:10;77.07;;;46.77;;
36315;SDS011;22343;50.820;2.666;2023-02-15T06:09:56;80.07;;;46.97;;
36315;SDS011;22343;50.820;2.666;2023-02-15T06:12:41;82.73;;;47.23;;
36315;SDS011;22343;50.820;2.666;2023-02-15T06:15:29;91.00;;;51.50;;
36315;SDS011;22343;50.820;2.666;2023-02-15T06:18:14;85.80;;;51.20;;
36315;SDS011;22343;50.820;2.666;2023-02-15T06:20:59;83.67;;;47.70;;
36315;SDS011;22343;50.820;2.666;2023-02-15T06:23:45;80.77;;;45.67;;
36315;SDS011;22343;50.820;2.666;2023-02-15T06:26:31;69.27;;;42.30;;
36315;SDS011;22343;50.820;2.666;2023-02-15T06:29:18;77.17;;;42.97;;
36315;SDS011;22343;50.820;2.666;2023-02-15T06:32:04;65.97;;;40.07;;
36315;SDS011;22343;50.820;2.666;2023-02-15T06:34:49;72.73;;;43.63;;
36315;SDS011;22343;50.820;2.666;2023-02-15T06:37:35;74.70;;;42.13;;
36315;SDS011;22343;50.820;2.666;2023-02-15T06:40:20;74.47;;;43.27;;
36315;SDS011;22343;50.820;2.666;2023-02-15T06:43:05;75.13;;;44.50;;
36315;SDS011;22343;50.820;2.666;2023-02-15T06:45:49;70.43;;;41.33;;
36315;SDS011;22343;50.820;2.666;2023-02-15T06:48:35;79.83;;;43.67;;
36315;SDS011;22343;50.820;2.666;2023-02-15T06:51:20;78.27;;;45.73;;
36315;SDS011;22343;50.820;2.666;2023-02-15T06:54:06;77.20;;;46.40;;
36315;SDS011;22343;50.820;2.666;2023-02-15T06:56:52;73.03;;;43.43;;
36315;SDS011;22343;50.820;2.666;2023-02-15T06:59:36;75.47;;;42.93;;
36315;SDS011;22343;50.820;2.666;2023-02-15T07:02:22;83.70;;;48.17;;
36315;SDS011;22343;50.820;2.666;2023-02-15T07:05:06;83.20;;;47.57;;
36315;SDS011;22343;50.820;2.666;2023-02-15T07:07:52;81.43;;;47.73;;
36315;SDS011;22343;50.820;2.666;2023-02-15T07:10:38;88.47;;;49.17;;
36315;SDS011;22343;50.820;2.666;2023-02-15T07:13:24;72.83;;;42.83;;
36315;SDS011;22343;50.820;2.666;2023-02-15T07:16:08;80.87;;;44.03;;
36315;SDS011;22343;50.820;2.666;2023-02-15T07:18:56;72.43;;;41.27;;
36315;SDS011;22343;50.820;2.666;2023-02-15T07:21:42;78.20;;;42.97;;
36315;SDS011;22343;50.820;2.666;2023-02-15T07:24:29;73.07;;;42.63;;
36315;SDS011;22343;50.820;2.666;2023-02-15T07:27:15;76.37;;;44.27;;
36315;SDS011;22343;50.820;2.666;2023-02-15T07:30:00;74.67;;;42.90;;
36315;SDS011;22343;50.820;2.666;2023-02-15T07:32:46;69.43;;;41.10;;
36315;SDS011;22343;50.820;2.666;2023-02-15T07:35:51;69.63;;;42.47;;
36315;SDS011;22343;50.820;2.666;2023-02-15T07:38:41;82.97;;;44.23;;
36315;SDS011;22343;50.820;2.666;2023-02-15T07:41:30;71.53;;;41.00;;
36315;SDS011;22343;50.820;2.666;2023-02-15T07:44:16;70.77;;;41.30;;
36315;SDS011;22343;50.820;2.666;2023-02-15T07:47:05;71.57;;;41.80;;
36315;SDS011;22343;50.820;2.666;2023-02-15T07:49:50;67.87;;;39.57;;
36315;SDS011;22343;50.820;2.666;2023-02-15T07:52:37;100.13;;;60.67;;
36315;SDS011;22343;50.820;2.666;2023-02-15T07:55:23;110.80;;;67.27;;
36315;SDS011;22343;50.820;2.666;2023-02-15T07:58:09;90.10;;;54.90;;
36315;SDS011;22343;50.820;2.666;2023-02-15T08:00:55;67.47;;;40.27;;
36315;SDS011;22343;50.820;2.666;2023-02-15T08:03:41;62.77;;;39.20;;
36315;SDS011;22343;50.820;2.666;2023-02-15T08:06:29;65.03;;;39.33;;
36315;SDS011;22343;50.820;2.666;2023-02-15T08:09:17;65.07;;;40.63;;
36315;SDS011;22343;50.820;2.666;2023-02-15T08:12:02;66.07;;;39.80;;
36315;SDS011;22343;50.820;2.666;2023-02-15T08:14:50;65.37;;;39.00;;
36315;SDS011;22343;50.820;2.666;2023-02-15T08:17:37;65.27;;;39.43;;
36315;SDS011;22343;50.820;2.666;2023-02-15T08:20:21;65.40;;;39.03;;
36315;SDS011;22343;50.820;2.666;2023-02-15T08:23:06;66.37;;;39.53;;
36315;SDS011;22343;50.820;2.666;2023-02-15T08:25:52;67.53;;;39.47;;
36315;SDS011;22343;50.820;2.666;2023-02-15T08:28:40;68.93;;;40.13;;
36315;SDS011;22343;50.820;2.666;2023-02-15T08:31:26;69.43;;;40.13;;
36315;SDS011;22343;50.820;2.666;2023-02-15T08:34:14;68.97;;;40.23;;
36315;SDS011;22343;50.820;2.666;2023-02-15T08:37:03;65.10;;;39.67;;
36315;SDS011;22343;50.820;2.666;2023-02-15T08:39:47;65.77;;;39.50;;
36315;SDS011;22343;50.820;2.666;2023-02-15T08:42:35;66.57;;;39.10;;
36315;SDS011;22343;50.820;2.666;2023-02-15T08:45:21;66.10;;;40.40;;
36315;SDS011;22343;50.820;2.666;2023-02-15T08:48:05;67.27;;;40.50;;
36315;SDS011;22343;50.820;2.666;2023-02-15T08:50:53;112.50;;;60.27;;
36315;SDS011;22343;50.820;2.666;2023-02-15T08:53:39;99.37;;;54.53;;
36315;SDS011;22343;50.820;2.666;2023-02-15T08:56:27;112.37;;;60.27;;
36315;SDS011;22343;50.820;2.666;2023-02-15T08:59:18;95.57;;;52.70;;
36315;SDS011;22343;50.820;2.666;2023-02-15T09:02:05;70.93;;;42.57;;
36315;SDS011;22343;50.820;2.666;2023-02-15T09:04:50;71.33;;;41.83;;
36315;SDS011;22343;50.820;2.666;2023-02-15T09:07:37;69.43;;;41.00;;
36315;SDS011;22343;50.820;2.666;2023-02-15T09:10:23;65.03;;;39.97;;
36315;SDS011;22343;50.820;2.666;2023-02-15T09:13:07;80.13;;;46.73;;
36315;SDS011;22343;50.820;2.666;2023-02-15T09:15:58;73.60;;;43.53;;
36315;SDS011;22343;50.820;2.666;2023-02-15T09:18:50;75.10;;;42.93;;
36315;SDS011;22343;50.820;2.666;2023-02-15T09:21:36;71.43;;;44.90;;
36315;SDS011;22343;50.820;2.666;2023-02-15T09:24:22;76.03;;;44.67;;
36315;SDS011;22343;50.820;2.666;2023-02-15T09:27:08;66.97;;;41.33;;
36315;SDS011;22343;50.820;2.666;2023-02-15T09:29:52;71.50;;;47.80;;
36315;SDS011;22343;50.820;2.666;2023-02-15T09:32:38;69.30;;;43.13;;
36315;SDS011;22343;50.820;2.666;2023-02-15T09:35:23;64.83;;;42.17;;
36315;SDS011;22343;50.820;2.666;2023-02-15T09:38:10;62.77;;;38.17;;
36315;SDS011;22343;50.820;2.666;2023-02-15T09:41:03;59.00;;;38.13;;
36315;SDS011;22343;50.820;2.666;2023-02-15T10:03:38;57.30;;;35.83;;
36315;SDS011;22343;50.820;2.666;2023-02-15T10:06:59;54.73;;;36.40;;
36315;SDS011;22343;50.820;2.666;2023-02-15T10:20:03;54.10;;;35.20;;
36315;SDS011;22343;50.820;2.666;2023-02-15T10:23:16;53.87;;;34.83;;
36315;SDS011;22343;50.820;2.666;2023-02-15T10:32:29;54.37;;;35.13;;
36315;SDS011;22343;50.820;2.666;2023-02-15T10:35:40;50.07;;;33.77;;
36315;SDS011;22343;50.820;2.666;2023-02-15T10:38:57;53.07;;;34.13;;
36315;SDS011;22343;50.820;2.666;2023-02-15T10:45:04;50.10;;;34.33;;
36315;SDS011;22343;50.820;2.666;2023-02-15T11:07:55;51.00;;;35.70;;
36315;SDS011;22343;50.820;2.666;2023-02-15T11:10:58;50.83;;;36.03;;
36315;SDS011;22343;50.820;2.666;2023-02-15T11:13:47;52.30;;;35.00;;
36315;SDS011;22343;50.820;2.666;2023-02-15T11:16:39;48.07;;;33.27;;
36315;SDS011;22343;50.820;2.666;2023-02-15T11:19:30;51.13;;;33.10;;
36315;SDS011;22343;50.820;2.666;2023-02-15T11:22:19;45.43;;;31.80;;
36315;SDS011;22343;50.820;2.666;2023-02-15T11:25:05;45.37;;;31.63;;
36315;SDS011;22343;50.820;2.666;2023-02-15T11:28:10;44.90;;;32.17;;
36315;SDS011;22343;50.820;2.666;2023-02-15T11:31:10;45.07;;;31.37;;
36315;SDS011;22343;50.820;2.666;2023-02-15T11:34:03;45.97;;;33.03;;
36315;SDS011;22343;50.820;2.666;2023-02-15T11:36:50;44.13;;;32.27;;
36315;SDS011;22343;50.820;2.666;2023-02-15T11:39:37;46.03;;;32.33;;
36315;SDS011;22343;50.820;2.666;2023-02-15T11:42:23;46.20;;;33.23;;
36315;SDS011;22343;50.820;2.666;2023-02-15T11:45:22;48.27;;;34.27;;
36315;SDS011;22343;50.820;2.666;2023-02-15T11:48:15;46.70;;;33.83;;
36315;SDS011;22343;50.820;2.666;2023-02-15T11:51:02;47.20;;;33.77;;
36315;SDS011;22343;50.820;2.666;2023-02-15T11:53:49;46.40;;;33.07;;
36315;SDS011;22343;50.820;2.666;2023-02-15T11:56:35;45.33;;;33.17;;
36315;SDS011;22343;50.820;2.666;2023-02-15T11:59:32;46.77;;;33.70;;
36315;SDS011;22343;50.820;2.666;2023-02-15T12:02:20;46.40;;;33.20;;
36315;SDS011;22343;50.820;2.666;2023-02-15T12:05:07;47.23;;;34.30;;
36315;SDS011;22343;50.820;2.666;2023-02-15T12:08:10;48.43;;;33.37;;
36315;SDS011;22343;50.820;2.666;2023-02-15T12:11:14;49.03;;;34.13;;
36315;SDS011;22343;50.820;2.666;2023-02-15T12:14:04;47.83;;;34.37;;
36315;SDS011;22343;50.820;2.666;2023-02-15T12:16:51;45.40;;;33.20;;
36315;SDS011;22343;50.820;2.666;2023-02-15T12:19:38;48.63;;;33.07;;
36315;SDS011;22343;50.820;2.666;2023-02-15T12:22:34;50.00;;;33.93;;
36315;SDS011;22343;50.820;2.666;2023-02-15T12:25:22;47.03;;;32.47;;
36315;SDS011;22343;50.820;2.666;2023-02-15T12:28:26;40.60;;;29.60;;
36315;SDS011;22343;50.820;2.666;2023-02-15T12:31:31;40.53;;;29.07;;
36315;SDS011;22343;50.820;2.666;2023-02-15T12:34:55;42.93;;;29.50;;
36315;SDS011;22343;50.820;2.666;2023-02-15T12:37:33;40.53;;;29.43;;
36315;SDS011;22343;50.820;2.666;2023-02-15T12:40:23;37.80;;;27.63;;
36315;SDS011;22343;50.820;2.666;2023-02-15T12:43:24;37.97;;;28.77;;
36315;SDS011;22343;50.820;2.666;2023-02-15T12:52:46;35.43;;;26.70;;
36315;SDS011;22343;50.820;2.666;2023-02-15T12:55:18;32.17;;;24.87;;
36315;SDS011;22343;50.820;2.666;2023-02-15T12:58:48;32.90;;;24.00;;
36315;SDS011;22343;50.820;2.666;2023-02-15T13:07:22;31.53;;;23.60;;
36315;SDS011;22343;50.820;2.666;2023-02-15T13:10:18;30.73;;;23.00;;
36315;SDS011;22343;50.820;2.666;2023-02-15T13:13:22;28.67;;;21.80;;
36315;SDS011;22343;50.820;2.666;2023-02-15T13:16:11;30.73;;;21.37;;
36315;SDS011;22343;50.820;2.666;2023-02-15T13:18:58;29.10;;;20.53;;
36315;SDS011;22343;50.820;2.666;2023-02-15T13:22:14;23.63;;;18.17;;
36315;SDS011;22343;50.820;2.666;2023-02-15T13:25:04;21.30;;;16.33;;
36315;SDS011;22343;50.820;2.666;2023-02-15T13:28:00;25.43;;;16.70;;
36315;SDS011;22343;50.820;2.666;2023-02-15T13:30:47;21.77;;;16.13;;
36315;SDS011;22343;50.820;2.666;2023-02-15T13:33:33;22.90;;;16.00;;
36315;SDS011;22343;50.820;2.666;2023-02-15T13:58:23;16.40;;;12.60;;
36315;SDS011;22343;50.820;2.666;2023-02-15T14:08:09;16.27;;;12.80;;
36315;SDS011;22343;50.820;2.666;2023-02-15T14:36:23;15.63;;;11.33;;
36315;SDS011;22343;50.820;2.666;2023-02-15T14:45:55;16.30;;;12.10;;
36315;SDS011;22343;50.820;2.666;2023-02-15T14:48:49;15.07;;;11.23;;
36315;SDS011;22343;50.820;2.666;2023-02-15T14:57:21;15.67;;;11.67;;
36315;SDS011;22343;50.820;2.666;2023-02-15T15:03:30;15.47;;;12.70;;
36315;SDS011;22343;50.820;2.666;2023-02-15T15:06:29;18.60;;;13.30;;
36315;SDS011;22343;50.820;2.666;2023-02-15T15:15:04;19.27;;;13.80;;
36315;SDS011;22343;50.820;2.666;2023-02-15T15:17:56;19.13;;;13.80;;
36315;SDS011;22343;50.820;2.666;2023-02-15T15:21:04;17.93;;;13.80;;
36315;SDS011;22343;50.820;2.666;2023-02-15T15:23:48;16.40;;;13.30;;
36315;SDS011;22343;50.820;2.666;2023-02-15T15:26:34;20.53;;;14.70;;
36315;SDS011;22343;50.820;2.666;2023-02-15T15:29:38;18.53;;;14.13;;
36315;SDS011;22343;50.820;2.666;2023-02-15T15:32:24;18.00;;;14.27;;
36315;SDS011;22343;50.820;2.666;2023-02-15T15:41:41;16.73;;;13.40;;
36315;SDS011;22343;50.820;2.666;2023-02-15T15:50:38;18.97;;;14.13;;
36315;SDS011;22343;50.820;2.666;2023-02-15T15:53:24;25.63;;;18.43;;
36315;SDS011;22343;50.820;2.666;2023-02-15T15:56:15;21.97;;;16.30;;
36315;SDS011;22343;50.820;2.666;2023-02-15T15:59:07;29.53;;;19.73;;
36315;SDS011;22343;50.820;2.666;2023-02-15T16:02:09;24.27;;;17.57;;
36315;SDS011;22343;50.820;2.666;2023-02-15T16:05:05;19.63;;;14.80;;
36315;SDS011;22343;50.820;2.666;2023-02-15T16:07:52;17.47;;;14.07;;
36315;SDS011;22343;50.820;2.666;2023-02-15T16:10:36;18.77;;;14.53;;
36315;SDS011;22343;50.820;2.666;2023-02-15T16:13:21;21.77;;;14.93;;
36315;SDS011;22343;50.820;2.666;2023-02-15T16:16:06;20.23;;;15.10;;
36315;SDS011;22343;50.820;2.666;2023-02-15T16:18:50;22.80;;;15.37;;
36315;SDS011;22343;50.820;2.666;2023-02-15T16:21:35;19.47;;;15.63;;
36315;SDS011;22343;50.820;2.666;2023-02-15T16:24:36;22.70;;;16.10;;
36315;SDS011;22343;50.820;2.666;2023-02-15T16:30:29;21.80;;;17.57;;
36315;SDS011;22343;50.820;2.666;2023-02-15T16:33:15;20.17;;;16.87;;
36315;SDS011;22343;50.820;2.666;2023-02-15T16:36:01;21.67;;;17.10;;
36315;SDS011;22343;50.820;2.666;2023-02-15T16:38:59;21.83;;;16.43;;
36315;SDS011;22343;50.820;2.666;2023-02-15T16:41:51;22.90;;;16.90;;
36315;SDS011;22343;50.820;2.666;2023-02-15T16:44:39;23.63;;;17.10;;
36315;SDS011;22343;50.820;2.666;2023-02-15T16:47:25;28.20;;;19.00;;
36315;SDS011;22343;50.820;2.666;2023-02-15T16:50:20;27.43;;;21.10;;
36315;SDS011;22343;50.820;2.666;2023-02-15T16:53:12;44.37;;;28.87;;
36315;SDS011;22343;50.820;2.666;2023-02-15T16:56:01;31.67;;;23.30;;
36315;SDS011;22343;50.820;2.666;2023-02-15T16:58:49;26.90;;;20.20;;
36315;SDS011;22343;50.820;2.666;2023-02-15T17:01:34;25.97;;;19.87;;
36315;SDS011;22343;50.820;2.666;2023-02-15T17:07:06;27.43;;;20.80;;
36315;SDS011;22343;50.820;2.666;2023-02-15T17:10:00;26.53;;;21.60;;
36315;SDS011;22343;50.820;2.666;2023-02-15T17:12:45;30.03;;;21.57;;
36315;SDS011;22343;50.820;2.666;2023-02-15T17:16:09;32.53;;;24.17;;
36315;SDS011;22343;50.820;2.666;2023-02-15T17:18:44;36.80;;;23.07;;
36315;SDS011;22343;50.820;2.666;2023-02-15T17:21:33;33.50;;;23.43;;
36315;SDS011;22343;50.820;2.666;2023-02-15T17:27:18;37.30;;;23.97;;
36315;SDS011;22343;50.820;2.666;2023-02-15T17:30:17;32.07;;;24.27;;
36315;SDS011;22343;50.820;2.666;2023-02-15T17:33:23;37.13;;;25.13;;
36315;SDS011;22343;50.820;2.666;2023-02-15T17:36:17;35.17;;;24.70;;
36315;SDS011;22343;50.820;2.666;2023-02-15T17:39:18;36.53;;;25.57;;
36315;SDS011;22343;50.820;2.666;2023-02-15T17:42:04;37.60;;;27.63;;
36315;SDS011;22343;50.820;2.666;2023-02-15T17:44:49;37.23;;;26.77;;
36315;SDS011;22343;50.820;2.666;2023-02-15T17:47:35;36.70;;;26.50;;
36315;SDS011;22343;50.820;2.666;2023-02-15T17:50:26;36.83;;;26.10;;
36315;SDS011;22343;50.820;2.666;2023-02-15T17:53:12;36.63;;;27.50;;
36315;SDS011;22343;50.820;2.666;2023-02-15T17:56:01;54.27;;;36.47;;
36315;SDS011;22343;50.820;2.666;2023-02-15T17:58:53;60.47;;;39.67;;
36315;SDS011;22343;50.820;2.666;2023-02-15T18:01:42;52.50;;;35.63;;
36315;SDS011;22343;50.820;2.666;2023-02-15T18:04:49;41.80;;;30.13;;
36315;SDS011;22343;50.820;2.666;2023-02-15T18:07:53;42.97;;;30.67;;
36315;SDS011;22343;50.820;2.666;2023-02-15T18:10:58;43.10;;;31.13;;
36315;SDS011;22343;50.820;2.666;2023-02-15T18:14:01;61.07;;;41.43;;
36315;SDS011;22343;50.820;2.666;2023-02-15T18:16:46;48.07;;;36.47;;
36315;SDS011;22343;50.820;2.666;2023-02-15T18:19:30;50.90;;;37.00;;
36315;SDS011;22343;50.820;2.666;2023-02-15T18:22:16;52.90;;;34.73;;
36315;SDS011;22343;50.820;2.666;2023-02-15T18:25:02;52.57;;;38.50;;
36315;SDS011;22343;50.820;2.666;2023-02-15T18:27:46;60.33;;;42.23;;
36315;SDS011;22343;50.820;2.666;2023-02-15T18:30:31;66.07;;;44.03;;
36315;SDS011;22343;50.820;2.666;2023-02-15T18:36:35;54.03;;;37.13;;
36315;SDS011;22343;50.820;2.666;2023-02-15T18:39:40;50.60;;;39.87;;
36315;SDS011;22343;50.820;2.666;2023-02-15T18:42:29;52.93;;;39.17;;
36315;SDS011;22343;50.820;2.666;2023-02-15T18:45:16;51.07;;;38.83;;
36315;SDS011;22343;50.820;2.666;2023-02-15T18:48:02;49.70;;;36.10;;
36315;SDS011;22343;50.820;2.666;2023-02-15T18:50:46;50.43;;;35.90;;
36315;SDS011;22343;50.820;2.666;2023-02-15T18:53:31;53.57;;;36.90;;
36315;SDS011;22343;50.820;2.666;2023-02-15T18:56:16;51.57;;;36.80;;
36315;SDS011;22343;50.820;2.666;2023-02-15T18:59:01;48.77;;;36.93;;
36315;SDS011;22343;50.820;2.666;2023-02-15T19:01:46;60.50;;;46.53;;
36315;SDS011;22343;50.820;2.666;2023-02-15T19:04:30;65.07;;;48.73;;
36315;SDS011;22343;50.820;2.666;2023-02-15T19:07:24;74.03;;;53.20;;
36315;SDS011;22343;50.820;2.666;2023-02-15T19:10:12;72.50;;;50.63;;
36315;SDS011;22343;50.820;2.666;2023-02-15T19:12:59;67.83;;;48.63;;
36315;SDS011;22343;50.820;2.666;2023-02-15T19:15:43;63.23;;;47.83;;
36315;SDS011;22343;50.820;2.666;2023-02-15T19:18:28;72.87;;;51.97;;
36315;SDS011;22343;50.820;2.666;2023-02-15T19:21:14;68.10;;;49.13;;
36315;SDS011;22343;50.820;2.666;2023-02-15T19:24:02;86.20;;;58.63;;
36315;SDS011;22343;50.820;2.666;2023-02-15T19:26:50;127.47;;;90.17;;
36315;SDS011;22343;50.820;2.666;2023-02-15T19:29:35;71.50;;;52.13;;
36315;SDS011;22343;50.820;2.666;2023-02-15T19:32:19;94.83;;;71.40;;
36315;SDS011;22343;50.820;2.666;2023-02-15T19:35:04;108.50;;;73.70;;
36315;SDS011;22343;50.820;2.666;2023-02-15T19:37:50;115.00;;;74.83;;
36315;SDS011;22343;50.820;2.666;2023-02-15T19:40:36;122.40;;;87.73;;
36315;SDS011;22343;50.820;2.666;2023-02-15T19:43:20;69.03;;;48.73;;
36315;SDS011;22343;50.820;2.666;2023-02-15T19:46:09;56.13;;;40.60;;
36315;SDS011;22343;50.820;2.666;2023-02-15T19:49:02;89.83;;;62.67;;
36315;SDS011;22343;50.820;2.666;2023-02-15T19:51:48;71.10;;;49.30;;
36315;SDS011;22343;50.820;2.666;2023-02-15T19:54:33;73.27;;;48.47;;
36315;SDS011;22343;50.820;2.666;2023-02-15T19:57:19;127.40;;;92.93;;
36315;SDS011;22343;50.820;2.666;2023-02-15T20:00:13;69.33;;;48.83;;
36315;SDS011;22343;50.820;2.666;2023-02-15T20:03:01;81.07;;;54.13;;
36315;SDS011;22343;50.820;2.666;2023-02-15T20:05:46;68.50;;;48.30;;
36315;SDS011;22343;50.820;2.666;2023-02-15T20:08:31;72.93;;;49.53;;
36315;SDS011;22343;50.820;2.666;2023-02-15T20:11:15;67.43;;;46.80;;
36315;SDS011;22343;50.820;2.666;2023-02-15T20:14:00;70.20;;;49.07;;